sensor_id;sensor_type;location;lat;lon;timestamp;temperature;humidity
10010;DHT22;5044;48.652;9.250;2022-08-14T00:00:54;18.30;78.80
10010;DHT22;5044;48.652;9.250;2022-08-14T00:03:22;18.30;83.30
10010;DHT22;5044;48.652;9.250;2022-08-14T00:05:49;18.20;85.70
10010;DHT22;5044;48.652;9.250;2022-08-14T00:08:16;18.10;76.00
10010;DHT22;5044;48.652;9.250;2022-08-14T00:10:44;18.10;72.20
10010;DHT22;5044;48.652;9.250;2022-08-14T00:13:11;18.10;65.80
10010;DHT22;5044;48.652;9.250;2022-08-14T00:15:43;18.10;67.70
10010;DHT22;5044;48.652;9.250;2022-08-14T00:18:13;18.10;67.40
10010;DHT22;5044;48.652;9.250;2022-08-14T00:20:42;18.00;67.80
10010;DHT22;5044;48.652;9.250;2022-08-14T00:23:10;18.00;71.60
10010;DHT22;5044;48.652;9.250;2022-08-14T00:25:38;18.00;70.10
10010;DHT22;5044;48.652;9.250;2022-08-14T00:28:07;18.00;68.90
10010;DHT22;5044;48.652;9.250;2022-08-14T00:30:35;17.90;66.70
10010;DHT22;5044;48.652;9.250;2022-08-14T00:33:03;17.90;65.60
10010;DHT22;5044;48.652;9.250;2022-08-14T00:35:31;17.90;64.10
10010;DHT22;5044;48.652;9.250;2022-08-14T00:37:58;17.90;63.20
10010;DHT22;5044;48.652;9.250;2022-08-14T00:40:25;17.90;62.60
10010;DHT22;5044;48.652;9.250;2022-08-14T00:42:52;17.90;62.30
10010;DHT22;5044;48.652;9.250;2022-08-14T00:45:20;17.90;62.20
10010;DHT22;5044;48.652;9.250;2022-08-14T00:47:48;17.90;61.10
10010;DHT22;5044;48.652;9.250;2022-08-14T00:50:20;17.90;60.30
10010;DHT22;5044;48.652;9.250;2022-08-14T00:52:49;17.90;65.40
10010;DHT22;5044;48.652;9.250;2022-08-14T00:55:18;17.90;61.00
10010;DHT22;5044;48.652;9.250;2022-08-14T00:57:46;17.90;62.90
10010;DHT22;5044;48.652;9.250;2022-08-14T01:00:34;17.80;63.00
10010;DHT22;5044;48.652;9.250;2022-08-14T01:03:02;17.80;66.20
10010;DHT22;5044;48.652;9.250;2022-08-14T01:05:31;17.70;70.10
10010;DHT22;5044;48.652;9.250;2022-08-14T01:07:59;17.60;69.60
10010;DHT22;5044;48.652;9.250;2022-08-14T01:10:28;17.60;64.70
10010;DHT22;5044;48.652;9.250;2022-08-14T01:13:10;17.60;77.10
10010;DHT22;5044;48.652;9.250;2022-08-14T01:15:38;17.50;73.20
10010;DHT22;5044;48.652;9.250;2022-08-14T01:18:05;17.40;75.50
10010;DHT22;5044;48.652;9.250;2022-08-14T01:20:52;17.40;71.60
10010;DHT22;5044;48.652;9.250;2022-08-14T01:23:33;17.40;71.70
10010;DHT22;5044;48.652;9.250;2022-08-14T01:26:01;17.30;70.30
10010;DHT22;5044;48.652;9.250;2022-08-14T01:28:28;17.30;68.00
10010;DHT22;5044;48.652;9.250;2022-08-14T01:30:56;17.30;69.80
10010;DHT22;5044;48.652;9.250;2022-08-14T01:33:25;17.20;71.10
10010;DHT22;5044;48.652;9.250;2022-08-14T01:35:54;17.20;65.70
10010;DHT22;5044;48.652;9.250;2022-08-14T01:38:23;17.20;66.70
10010;DHT22;5044;48.652;9.250;2022-08-14T01:40:52;17.10;65.00
10010;DHT22;5044;48.652;9.250;2022-08-14T01:43:19;17.20;64.50
10010;DHT22;5044;48.652;9.250;2022-08-14T01:45:46;17.00;85.70
10010;DHT22;5044;48.652;9.250;2022-08-14T01:48:16;16.90;85.80
10010;DHT22;5044;48.652;9.250;2022-08-14T01:50:44;16.80;90.90
10010;DHT22;5044;48.652;9.250;2022-08-14T01:53:11;16.70;81.30
10010;DHT22;5044;48.652;9.250;2022-08-14T01:55:38;16.80;81.80
10010;DHT22;5044;48.652;9.250;2022-08-14T01:58:07;16.70;87.10
10010;DHT22;5044;48.652;9.250;2022-08-14T02:00:38;16.70;77.60
10010;DHT22;5044;48.652;9.250;2022-08-14T02:03:05;16.70;78.10
10010;DHT22;5044;48.652;9.250;2022-08-14T02:05:34;16.70;80.50
10010;DHT22;5044;48.652;9.250;2022-08-14T02:08:00;16.70;72.00
10010;DHT22;5044;48.652;9.250;2022-08-14T02:10:27;16.60;72.40
10010;DHT22;5044;48.652;9.250;2022-08-14T02:12:55;16.70;66.20
10010;DHT22;5044;48.652;9.250;2022-08-14T02:15:24;16.60;66.20
10010;DHT22;5044;48.652;9.250;2022-08-14T02:17:51;16.60;67.30
10010;DHT22;5044;48.652;9.250;2022-08-14T02:20:18;16.60;69.20
10010;DHT22;5044;48.652;9.250;2022-08-14T02:22:45;16.60;66.80
10010;DHT22;5044;48.652;9.250;2022-08-14T02:25:13;16.60;68.00
10010;DHT22;5044;48.652;9.250;2022-08-14T02:27:40;16.60;73.50
10010;DHT22;5044;48.652;9.250;2022-08-14T02:30:08;16.50;80.00
10010;DHT22;5044;48.652;9.250;2022-08-14T02:32:37;16.40;86.80
10010;DHT22;5044;48.652;9.250;2022-08-14T02:35:07;16.40;72.90
10010;DHT22;5044;48.652;9.250;2022-08-14T02:37:40;16.30;69.40
10010;DHT22;5044;48.652;9.250;2022-08-14T02:40:07;16.40;80.30
10010;DHT22;5044;48.652;9.250;2022-08-14T02:42:34;16.20;90.30
10010;DHT22;5044;48.652;9.250;2022-08-14T02:45:02;16.10;83.20
10010;DHT22;5044;48.652;9.250;2022-08-14T02:47:29;16.10;78.10
10010;DHT22;5044;48.652;9.250;2022-08-14T02:49:58;16.10;82.90
10010;DHT22;5044;48.652;9.250;2022-08-14T02:52:25;16.10;87.40
10010;DHT22;5044;48.652;9.250;2022-08-14T02:54:52;16.00;80.40
10010;DHT22;5044;48.652;9.250;2022-08-14T02:57:21;16.00;73.20
10010;DHT22;5044;48.652;9.250;2022-08-14T02:59:50;16.00;80.70
10010;DHT22;5044;48.652;9.250;2022-08-14T03:02:17;16.00;84.60
10010;DHT22;5044;48.652;9.250;2022-08-14T03:04:44;15.90;80.60
10010;DHT22;5044;48.652;9.250;2022-08-14T03:07:12;15.90;72.80
10010;DHT22;5044;48.652;9.250;2022-08-14T03:09:41;15.90;80.60
10010;DHT22;5044;48.652;9.250;2022-08-14T03:12:08;15.80;93.90
10010;DHT22;5044;48.652;9.250;2022-08-14T03:14:35;15.80;86.80
10010;DHT22;5044;48.652;9.250;2022-08-14T03:17:04;15.70;81.80
10010;DHT22;5044;48.652;9.250;2022-08-14T03:19:35;15.70;83.80
10010;DHT22;5044;48.652;9.250;2022-08-14T03:22:02;15.70;90.40
10010;DHT22;5044;48.652;9.250;2022-08-14T03:24:31;15.60;97.50
10010;DHT22;5044;48.652;9.250;2022-08-14T03:26:59;15.50;96.10
10010;DHT22;5044;48.652;9.250;2022-08-14T03:29:26;15.40;92.50
10010;DHT22;5044;48.652;9.250;2022-08-14T03:31:53;15.40;98.50
10010;DHT22;5044;48.652;9.250;2022-08-14T03:34:20;15.20;99.90
10010;DHT22;5044;48.652;9.250;2022-08-14T03:36:48;15.10;99.90
10010;DHT22;5044;48.652;9.250;2022-08-14T03:39:19;15.00;98.90
10010;DHT22;5044;48.652;9.250;2022-08-14T03:41:48;15.00;98.70
10010;DHT22;5044;48.652;9.250;2022-08-14T03:44:15;14.90;99.90
10010;DHT22;5044;48.652;9.250;2022-08-14T03:46:42;14.90;96.30
10010;DHT22;5044;48.652;9.250;2022-08-14T03:49:09;14.90;94.20
10010;DHT22;5044;48.652;9.250;2022-08-14T03:51:36;14.90;88.60
10010;DHT22;5044;48.652;9.250;2022-08-14T03:54:06;15.00;79.70
10010;DHT22;5044;48.652;9.250;2022-08-14T03:56:34;15.00;82.30
10010;DHT22;5044;48.652;9.250;2022-08-14T03:59:05;15.10;86.20
10010;DHT22;5044;48.652;9.250;2022-08-14T04:01:34;15.10;79.20
10010;DHT22;5044;48.652;9.250;2022-08-14T04:04:01;15.10;88.40
10010;DHT22;5044;48.652;9.250;2022-08-14T04:06:30;15.10;87.20
10010;DHT22;5044;48.652;9.250;2022-08-14T04:08:57;15.00;96.20
10010;DHT22;5044;48.652;9.250;2022-08-14T04:11:25;14.90;92.80
10010;DHT22;5044;48.652;9.250;2022-08-14T04:13:53;14.90;98.20
10010;DHT22;5044;48.652;9.250;2022-08-14T04:16:21;14.80;94.20
10010;DHT22;5044;48.652;9.250;2022-08-14T04:18:54;14.70;97.60
10010;DHT22;5044;48.652;9.250;2022-08-14T04:21:24;14.80;93.20
10010;DHT22;5044;48.652;9.250;2022-08-14T04:23:55;14.70;93.00
10010;DHT22;5044;48.652;9.250;2022-08-14T04:26:25;14.80;97.30
10010;DHT22;5044;48.652;9.250;2022-08-14T04:28:53;14.70;93.50
10010;DHT22;5044;48.652;9.250;2022-08-14T04:31:23;14.70;99.90
10010;DHT22;5044;48.652;9.250;2022-08-14T04:33:50;14.70;99.90
10010;DHT22;5044;48.652;9.250;2022-08-14T04:36:18;14.60;95.20
10010;DHT22;5044;48.652;9.250;2022-08-14T04:38:45;14.70;98.20
10010;DHT22;5044;48.652;9.250;2022-08-14T04:41:30;14.60;99.90
10010;DHT22;5044;48.652;9.250;2022-08-14T04:44:14;14.60;93.10
10010;DHT22;5044;48.652;9.250;2022-08-14T04:46:43;14.60;88.30
10010;DHT22;5044;48.652;9.250;2022-08-14T04:49:31;14.70;82.00
10010;DHT22;5044;48.652;9.250;2022-08-14T04:51:57;14.80;89.00
10010;DHT22;5044;48.652;9.250;2022-08-14T04:54:25;14.90;84.20
10010;DHT22;5044;48.652;9.250;2022-08-14T04:56:52;14.90;77.70
10010;DHT22;5044;48.652;9.250;2022-08-14T04:59:21;15.00;74.60
10010;DHT22;5044;48.652;9.250;2022-08-14T05:01:50;15.00;73.40
10010;DHT22;5044;48.652;9.250;2022-08-14T05:04:18;15.10;79.30
10010;DHT22;5044;48.652;9.250;2022-08-14T05:06:45;15.10;73.60
10010;DHT22;5044;48.652;9.250;2022-08-14T05:09:12;15.20;74.80
10010;DHT22;5044;48.652;9.250;2022-08-14T05:11:39;15.20;74.20
10010;DHT22;5044;48.652;9.250;2022-08-14T05:14:06;15.20;80.90
10010;DHT22;5044;48.652;9.250;2022-08-14T05:16:34;15.20;78.70
10010;DHT22;5044;48.652;9.250;2022-08-14T05:19:03;15.30;78.70
10010;DHT22;5044;48.652;9.250;2022-08-14T05:21:30;15.30;73.60
10010;DHT22;5044;48.652;9.250;2022-08-14T05:23:59;15.40;71.40
10010;DHT22;5044;48.652;9.250;2022-08-14T05:26:25;15.40;74.00
10010;DHT22;5044;48.652;9.250;2022-08-14T05:28:52;15.40;78.00
10010;DHT22;5044;48.652;9.250;2022-08-14T05:31:19;15.50;77.40
10010;DHT22;5044;48.652;9.250;2022-08-14T05:33:46;15.70;82.80
10010;DHT22;5044;48.652;9.250;2022-08-14T05:36:15;15.80;76.20
10010;DHT22;5044;48.652;9.250;2022-08-14T05:38:43;16.00;82.30
10010;DHT22;5044;48.652;9.250;2022-08-14T05:41:12;16.20;80.40
10010;DHT22;5044;48.652;9.250;2022-08-14T05:43:40;16.30;88.00
10010;DHT22;5044;48.652;9.250;2022-08-14T05:46:10;16.30;84.20
10010;DHT22;5044;48.652;9.250;2022-08-14T05:48:52;16.40;90.40
10010;DHT22;5044;48.652;9.250;2022-08-14T05:51:21;16.50;88.00
10010;DHT22;5044;48.652;9.250;2022-08-14T05:53:49;16.70;86.00
10010;DHT22;5044;48.652;9.250;2022-08-14T05:56:16;16.80;81.90
10010;DHT22;5044;48.652;9.250;2022-08-14T05:58:43;17.00;81.10
10010;DHT22;5044;48.652;9.250;2022-08-14T06:01:10;17.20;88.50
10010;DHT22;5044;48.652;9.250;2022-08-14T06:03:38;17.40;85.20
10010;DHT22;5044;48.652;9.250;2022-08-14T06:06:05;17.50;85.20
10010;DHT22;5044;48.652;9.250;2022-08-14T06:08:34;17.60;90.00
10010;DHT22;5044;48.652;9.250;2022-08-14T06:11:03;17.70;86.40
10010;DHT22;5044;48.652;9.250;2022-08-14T06:13:31;17.80;79.30
10010;DHT22;5044;48.652;9.250;2022-08-14T06:15:59;18.00;78.80
10010;DHT22;5044;48.652;9.250;2022-08-14T06:18:27;18.20;78.10
10010;DHT22;5044;48.652;9.250;2022-08-14T06:20:54;18.40;76.80
10010;DHT22;5044;48.652;9.250;2022-08-14T06:23:21;18.60;81.90
10010;DHT22;5044;48.652;9.250;2022-08-14T06:25:49;18.80;80.50
10010;DHT22;5044;48.652;9.250;2022-08-14T06:28:16;19.00;82.20
10010;DHT22;5044;48.652;9.250;2022-08-14T06:30:43;19.20;75.70
10010;DHT22;5044;48.652;9.250;2022-08-14T06:33:10;19.40;84.00
10010;DHT22;5044;48.652;9.250;2022-08-14T06:35:37;19.70;76.80
10010;DHT22;5044;48.652;9.250;2022-08-14T06:38:04;19.90;70.20
10010;DHT22;5044;48.652;9.250;2022-08-14T06:40:33;20.10;73.60
10010;DHT22;5044;48.652;9.250;2022-08-14T06:43:03;20.30;79.70
10010;DHT22;5044;48.652;9.250;2022-08-14T06:45:30;20.50;73.20
10010;DHT22;5044;48.652;9.250;2022-08-14T06:47:58;20.60;70.70
10010;DHT22;5044;48.652;9.250;2022-08-14T06:50:26;20.80;73.30
10010;DHT22;5044;48.652;9.250;2022-08-14T06:52:53;20.90;69.50
10010;DHT22;5044;48.652;9.250;2022-08-14T06:55:21;21.20;69.60
10010;DHT22;5044;48.652;9.250;2022-08-14T06:57:49;21.20;69.80
10010;DHT22;5044;48.652;9.250;2022-08-14T07:00:24;21.40;68.70
10010;DHT22;5044;48.652;9.250;2022-08-14T07:02:51;21.70;69.60
10010;DHT22;5044;48.652;9.250;2022-08-14T07:05:36;21.90;65.90
10010;DHT22;5044;48.652;9.250;2022-08-14T07:08:14;22.10;63.80
10010;DHT22;5044;48.652;9.250;2022-08-14T07:10:42;22.20;63.00
10010;DHT22;5044;48.652;9.250;2022-08-14T07:13:10;22.40;63.90
10010;DHT22;5044;48.652;9.250;2022-08-14T07:15:40;22.50;63.90
10010;DHT22;5044;48.652;9.250;2022-08-14T07:18:08;22.70;65.70
10010;DHT22;5044;48.652;9.250;2022-08-14T07:20:35;22.90;61.60
10010;DHT22;5044;48.652;9.250;2022-08-14T07:23:04;22.90;61.90
10010;DHT22;5044;48.652;9.250;2022-08-14T07:25:31;23.20;64.40
10010;DHT22;5044;48.652;9.250;2022-08-14T07:27:59;23.30;62.50
10010;DHT22;5044;48.652;9.250;2022-08-14T07:30:26;23.50;62.70
10010;DHT22;5044;48.652;9.250;2022-08-14T07:32:54;23.70;60.30
10010;DHT22;5044;48.652;9.250;2022-08-14T07:35:21;23.80;58.60
10010;DHT22;5044;48.652;9.250;2022-08-14T07:37:48;23.90;59.60
10010;DHT22;5044;48.652;9.250;2022-08-14T07:40:15;24.00;58.40
10010;DHT22;5044;48.652;9.250;2022-08-14T07:42:42;24.30;58.60
10010;DHT22;5044;48.652;9.250;2022-08-14T07:45:10;24.50;58.60
10010;DHT22;5044;48.652;9.250;2022-08-14T07:47:41;24.60;60.80
10010;DHT22;5044;48.652;9.250;2022-08-14T07:50:14;24.80;60.50
10010;DHT22;5044;48.652;9.250;2022-08-14T07:52:42;25.10;59.20
10010;DHT22;5044;48.652;9.250;2022-08-14T07:55:10;25.10;58.60
10010;DHT22;5044;48.652;9.250;2022-08-14T07:57:38;25.30;57.60
10010;DHT22;5044;48.652;9.250;2022-08-14T08:00:08;25.20;58.20
10010;DHT22;5044;48.652;9.250;2022-08-14T08:02:38;25.50;59.80
10010;DHT22;5044;48.652;9.250;2022-08-14T08:05:08;25.80;59.90
10010;DHT22;5044;48.652;9.250;2022-08-14T08:07:38;26.10;61.00
10010;DHT22;5044;48.652;9.250;2022-08-14T08:10:08;26.30;59.50
10010;DHT22;5044;48.652;9.250;2022-08-14T08:12:49;26.40;58.20
10010;DHT22;5044;48.652;9.250;2022-08-14T08:15:18;26.50;56.40
10010;DHT22;5044;48.652;9.250;2022-08-14T08:17:45;26.40;56.50
10010;DHT22;5044;48.652;9.250;2022-08-14T08:20:15;26.80;54.90
10010;DHT22;5044;48.652;9.250;2022-08-14T08:22:44;27.10;54.30
10010;DHT22;5044;48.652;9.250;2022-08-14T08:25:11;27.20;52.60
10010;DHT22;5044;48.652;9.250;2022-08-14T08:27:38;27.60;53.30
10010;DHT22;5044;48.652;9.250;2022-08-14T08:30:07;27.80;52.50
10010;DHT22;5044;48.652;9.250;2022-08-14T08:32:38;28.00;51.50
10010;DHT22;5044;48.652;9.250;2022-08-14T08:35:09;28.20;51.40
10010;DHT22;5044;48.652;9.250;2022-08-14T08:37:35;28.30;51.10
10010;DHT22;5044;48.652;9.250;2022-08-14T08:40:06;28.60;50.80
10010;DHT22;5044;48.652;9.250;2022-08-14T08:42:33;28.60;48.90
10010;DHT22;5044;48.652;9.250;2022-08-14T08:44:59;28.60;47.30
10010;DHT22;5044;48.652;9.250;2022-08-14T08:47:37;28.90;48.00
10010;DHT22;5044;48.652;9.250;2022-08-14T08:50:17;29.10;47.00
10010;DHT22;5044;48.652;9.250;2022-08-14T08:52:49;29.50;47.50
10010;DHT22;5044;48.652;9.250;2022-08-14T08:55:25;29.70;46.30
10010;DHT22;5044;48.652;9.250;2022-08-14T08:57:54;29.70;45.30
10010;DHT22;5044;48.652;9.250;2022-08-14T09:00:21;30.00;45.70
10010;DHT22;5044;48.652;9.250;2022-08-14T09:02:56;30.10;45.10
10010;DHT22;5044;48.652;9.250;2022-08-14T09:05:25;30.20;44.70
10010;DHT22;5044;48.652;9.250;2022-08-14T09:07:52;30.50;45.30
10010;DHT22;5044;48.652;9.250;2022-08-14T09:10:19;30.40;42.90
10010;DHT22;5044;48.652;9.250;2022-08-14T09:12:47;30.40;42.40
10010;DHT22;5044;48.652;9.250;2022-08-14T09:15:14;30.90;43.50
10010;DHT22;5044;48.652;9.250;2022-08-14T09:17:42;31.00;43.20
10010;DHT22;5044;48.652;9.250;2022-08-14T09:20:10;31.20;42.60
10010;DHT22;5044;48.652;9.250;2022-08-14T09:22:39;31.10;41.70
10010;DHT22;5044;48.652;9.250;2022-08-14T09:25:07;31.30;41.70
10010;DHT22;5044;48.652;9.250;2022-08-14T09:27:35;31.40;41.90
10010;DHT22;5044;48.652;9.250;2022-08-14T09:30:04;31.40;41.70
10010;DHT22;5044;48.652;9.250;2022-08-14T09:32:37;31.70;42.10
10010;DHT22;5044;48.652;9.250;2022-08-14T09:35:14;31.70;41.30
10010;DHT22;5044;48.652;9.250;2022-08-14T09:37:51;31.80;40.90
10010;DHT22;5044;48.652;9.250;2022-08-14T09:40:28;32.20;41.60
10010;DHT22;5044;48.652;9.250;2022-08-14T09:43:13;32.30;40.80
10010;DHT22;5044;48.652;9.250;2022-08-14T09:45:45;32.50;41.10
10010;DHT22;5044;48.652;9.250;2022-08-14T09:48:14;32.50;40.60
10010;DHT22;5044;48.652;9.250;2022-08-14T09:50:47;32.10;39.30
10010;DHT22;5044;48.652;9.250;2022-08-14T09:53:16;32.50;39.80
10010;DHT22;5044;48.652;9.250;2022-08-14T09:55:44;33.00;40.10
10010;DHT22;5044;48.652;9.250;2022-08-14T09:58:13;33.10;39.30
10010;DHT22;5044;48.652;9.250;2022-08-14T10:00:45;33.30;39.20
10010;DHT22;5044;48.652;9.250;2022-08-14T10:03:22;33.40;38.70
10010;DHT22;5044;48.652;9.250;2022-08-14T10:05:50;33.20;37.80
10010;DHT22;5044;48.652;9.250;2022-08-14T10:08:19;33.00;37.20
10010;DHT22;5044;48.652;9.250;2022-08-14T10:10:47;33.00;36.90
10010;DHT22;5044;48.652;9.250;2022-08-14T10:13:21;33.00;36.30
10010;DHT22;5044;48.652;9.250;2022-08-14T10:15:50;33.40;36.60
10010;DHT22;5044;48.652;9.250;2022-08-14T10:18:26;33.50;36.50
10010;DHT22;5044;48.652;9.250;2022-08-14T10:20:56;33.50;36.10
10010;DHT22;5044;48.652;9.250;2022-08-14T10:23:26;33.30;35.40
10010;DHT22;5044;48.652;9.250;2022-08-14T10:26:03;33.30;35.20
10010;DHT22;5044;48.652;9.250;2022-08-14T10:28:37;33.20;35.10
10010;DHT22;5044;48.652;9.250;2022-08-14T10:31:18;33.40;35.30
10010;DHT22;5044;48.652;9.250;2022-08-14T10:33:58;33.50;35.10
10010;DHT22;5044;48.652;9.250;2022-08-14T10:36:27;33.30;34.70
10010;DHT22;5044;48.652;9.250;2022-08-14T10:38:58;33.50;34.80
10010;DHT22;5044;48.652;9.250;2022-08-14T10:41:37;33.50;34.30
10010;DHT22;5044;48.652;9.250;2022-08-14T10:44:10;33.70;34.50
10010;DHT22;5044;48.652;9.250;2022-08-14T10:46:42;33.50;34.60
10010;DHT22;5044;48.652;9.250;2022-08-14T10:49:17;33.80;34.80
10010;DHT22;5044;48.652;9.250;2022-08-14T10:52:04;34.00;34.50
10010;DHT22;5044;48.652;9.250;2022-08-14T10:54:34;34.10;34.20
10010;DHT22;5044;48.652;9.250;2022-08-14T10:57:20;34.10;34.20
10010;DHT22;5044;48.652;9.250;2022-08-14T10:59:51;33.80;33.80
10010;DHT22;5044;48.652;9.250;2022-08-14T11:02:26;33.80;33.80
10010;DHT22;5044;48.652;9.250;2022-08-14T11:05:04;34.20;34.30
10010;DHT22;5044;48.652;9.250;2022-08-14T11:07:32;34.40;33.90
10010;DHT22;5044;48.652;9.250;2022-08-14T11:10:05;34.60;34.20
10010;DHT22;5044;48.652;9.250;2022-08-14T11:12:41;34.50;33.80
10010;DHT22;5044;48.652;9.250;2022-08-14T11:15:11;33.90;32.60
10010;DHT22;5044;48.652;9.250;2022-08-14T11:17:39;34.20;33.60
10010;DHT22;5044;48.652;9.250;2022-08-14T11:20:08;34.50;33.50
10010;DHT22;5044;48.652;9.250;2022-08-14T11:22:38;34.50;33.00
10010;DHT22;5044;48.652;9.250;2022-08-14T11:25:08;34.70;33.30
10010;DHT22;5044;48.652;9.250;2022-08-14T11:27:37;34.60;32.80
10010;DHT22;5044;48.652;9.250;2022-08-14T11:30:07;34.70;32.50
10010;DHT22;5044;48.652;9.250;2022-08-14T11:32:34;34.80;32.40
10010;DHT22;5044;48.652;9.250;2022-08-14T11:35:05;34.80;31.90
10010;DHT22;5044;48.652;9.250;2022-08-14T11:37:32;34.90;31.90
10010;DHT22;5044;48.652;9.250;2022-08-14T11:39:59;35.20;32.20
10010;DHT22;5044;48.652;9.250;2022-08-14T11:42:27;35.30;32.00
10010;DHT22;5044;48.652;9.250;2022-08-14T11:44:57;35.30;31.60
10010;DHT22;5044;48.652;9.250;2022-08-14T11:47:24;35.50;31.00
10010;DHT22;5044;48.652;9.250;2022-08-14T11:49:51;35.40;30.30
10010;DHT22;5044;48.652;9.250;2022-08-14T11:52:19;35.50;30.00
10010;DHT22;5044;48.652;9.250;2022-08-14T11:54:56;35.30;29.40
10010;DHT22;5044;48.652;9.250;2022-08-14T11:57:23;35.30;29.50
10010;DHT22;5044;48.652;9.250;2022-08-14T11:59:59;35.50;29.80
10010;DHT22;5044;48.652;9.250;2022-08-14T12:02:27;35.70;30.00
10010;DHT22;5044;48.652;9.250;2022-08-14T12:04:54;35.20;29.40
10010;DHT22;5044;48.652;9.250;2022-08-14T12:07:22;35.60;29.70
10010;DHT22;5044;48.652;9.250;2022-08-14T12:09:51;35.60;29.60
10010;DHT22;5044;48.652;9.250;2022-08-14T12:12:21;35.90;29.30
10010;DHT22;5044;48.652;9.250;2022-08-14T12:14:49;35.80;28.90
10010;DHT22;5044;48.652;9.250;2022-08-14T12:17:18;35.50;29.00
10010;DHT22;5044;48.652;9.250;2022-08-14T12:19:48;35.70;29.20
10010;DHT22;5044;48.652;9.250;2022-08-14T12:22:16;36.10;29.40
10010;DHT22;5044;48.652;9.250;2022-08-14T12:24:48;36.30;29.20
10010;DHT22;5044;48.652;9.250;2022-08-14T12:27:15;36.40;29.30
10010;DHT22;5044;48.652;9.250;2022-08-14T12:29:52;36.50;29.00
10010;DHT22;5044;48.652;9.250;2022-08-14T12:32:18;36.60;28.80
10010;DHT22;5044;48.652;9.250;2022-08-14T12:34:51;36.90;29.20
10010;DHT22;5044;48.652;9.250;2022-08-14T12:37:28;36.80;29.20
10010;DHT22;5044;48.652;9.250;2022-08-14T12:40:12;36.80;29.10
10010;DHT22;5044;48.652;9.250;2022-08-14T12:42:40;36.90;28.90
10010;DHT22;5044;48.652;9.250;2022-08-14T12:45:08;37.00;28.60
10010;DHT22;5044;48.652;9.250;2022-08-14T12:47:37;37.20;28.80
10010;DHT22;5044;48.652;9.250;2022-08-14T12:50:05;36.70;28.00
10010;DHT22;5044;48.652;9.250;2022-08-14T12:52:34;36.80;28.00
10010;DHT22;5044;48.652;9.250;2022-08-14T12:55:05;36.90;28.20
10010;DHT22;5044;48.652;9.250;2022-08-14T12:57:47;36.70;28.20
10010;DHT22;5044;48.652;9.250;2022-08-14T13:00:16;36.70;28.20
10010;DHT22;5044;48.652;9.250;2022-08-14T13:02:45;36.80;28.00
10010;DHT22;5044;48.652;9.250;2022-08-14T13:05:13;36.60;27.60
10010;DHT22;5044;48.652;9.250;2022-08-14T13:07:41;36.90;28.00
10010;DHT22;5044;48.652;9.250;2022-08-14T13:10:10;37.30;27.80
10010;DHT22;5044;48.652;9.250;2022-08-14T13:12:40;37.20;27.90
10010;DHT22;5044;48.652;9.250;2022-08-14T13:15:09;37.10;27.80
10010;DHT22;5044;48.652;9.250;2022-08-14T13:17:40;37.00;27.80
10010;DHT22;5044;48.652;9.250;2022-08-14T13:20:09;37.00;27.80
10010;DHT22;5044;48.652;9.250;2022-08-14T13:22:37;37.10;28.00
10010;DHT22;5044;48.652;9.250;2022-08-14T13:25:07;37.00;27.70
10010;DHT22;5044;48.652;9.250;2022-08-14T13:27:35;36.70;26.90
10010;DHT22;5044;48.652;9.250;2022-08-14T13:30:05;36.20;26.00
10010;DHT22;5044;48.652;9.250;2022-08-14T13:32:33;36.50;26.50
10010;DHT22;5044;48.652;9.250;2022-08-14T13:35:04;37.10;27.10
10010;DHT22;5044;48.652;9.250;2022-08-14T13:37:32;37.30;27.10
10010;DHT22;5044;48.652;9.250;2022-08-14T13:39:59;37.50;27.40
10010;DHT22;5044;48.652;9.250;2022-08-14T13:42:27;37.50;26.90
10010;DHT22;5044;48.652;9.250;2022-08-14T13:44:55;37.80;27.10
10010;DHT22;5044;48.652;9.250;2022-08-14T13:47:25;38.00;27.30
10010;DHT22;5044;48.652;9.250;2022-08-14T13:49:56;37.70;26.60
10010;DHT22;5044;48.652;9.250;2022-08-14T13:52:25;37.40;26.10
10010;DHT22;5044;48.652;9.250;2022-08-14T13:54:57;37.40;26.10
10010;DHT22;5044;48.652;9.250;2022-08-14T13:57:27;37.50;26.40
10010;DHT22;5044;48.652;9.250;2022-08-14T13:59:54;37.70;26.80
10010;DHT22;5044;48.652;9.250;2022-08-14T14:02:26;37.00;26.40
10010;DHT22;5044;48.652;9.250;2022-08-14T14:04:56;37.30;26.60
10010;DHT22;5044;48.652;9.250;2022-08-14T14:07:27;37.70;27.30
10010;DHT22;5044;48.652;9.250;2022-08-14T14:09:57;37.00;26.10
10010;DHT22;5044;48.652;9.250;2022-08-14T14:12:26;36.60;26.30
10010;DHT22;5044;48.652;9.250;2022-08-14T14:14:54;37.20;27.10
10010;DHT22;5044;48.652;9.250;2022-08-14T14:17:21;36.50;26.30
10010;DHT22;5044;48.652;9.250;2022-08-14T14:19:51;36.10;26.20
10010;DHT22;5044;48.652;9.250;2022-08-14T14:22:18;36.00;26.20
10010;DHT22;5044;48.652;9.250;2022-08-14T14:24:45;36.00;26.40
10010;DHT22;5044;48.652;9.250;2022-08-14T14:27:13;36.30;26.70
10010;DHT22;5044;48.652;9.250;2022-08-14T14:29:42;35.90;26.30
10010;DHT22;5044;48.652;9.250;2022-08-14T14:32:11;36.20;27.30
10010;DHT22;5044;48.652;9.250;2022-08-14T14:34:40;35.90;26.60
10010;DHT22;5044;48.652;9.250;2022-08-14T14:37:12;35.90;27.20
10010;DHT22;5044;48.652;9.250;2022-08-14T14:39:40;35.40;26.90
10010;DHT22;5044;48.652;9.250;2022-08-14T14:42:07;35.50;27.00
10010;DHT22;5044;48.652;9.250;2022-08-14T14:44:37;35.90;27.40
10010;DHT22;5044;48.652;9.250;2022-08-14T14:47:07;35.60;26.70
10010;DHT22;5044;48.652;9.250;2022-08-14T14:49:35;35.90;27.30
10010;DHT22;5044;48.652;9.250;2022-08-14T14:52:04;35.70;27.10
10010;DHT22;5044;48.652;9.250;2022-08-14T14:54:35;35.70;27.50
10010;DHT22;5044;48.652;9.250;2022-08-14T14:57:03;35.30;27.00
10010;DHT22;5044;48.652;9.250;2022-08-14T14:59:30;35.20;27.30
10010;DHT22;5044;48.652;9.250;2022-08-14T15:01:59;35.70;28.60
10010;DHT22;5044;48.652;9.250;2022-08-14T15:04:31;35.80;28.90
10010;DHT22;5044;48.652;9.250;2022-08-14T15:06:58;35.60;28.50
10010;DHT22;5044;48.652;9.250;2022-08-14T15:09:25;35.60;28.50
10010;DHT22;5044;48.652;9.250;2022-08-14T15:11:53;35.20;27.60
10010;DHT22;5044;48.652;9.250;2022-08-14T15:14:22;34.90;27.60
10010;DHT22;5044;48.652;9.250;2022-08-14T15:16:49;34.50;27.40
10010;DHT22;5044;48.652;9.250;2022-08-14T15:19:16;34.40;27.50
10010;DHT22;5044;48.652;9.250;2022-08-14T15:21:43;34.10;27.50
10010;DHT22;5044;48.652;9.250;2022-08-14T15:24:10;34.60;28.90
10010;DHT22;5044;48.652;9.250;2022-08-14T15:26:37;35.00;29.80
10010;DHT22;5044;48.652;9.250;2022-08-14T15:29:05;35.10;30.50
10010;DHT22;5044;48.652;9.250;2022-08-14T15:31:33;35.10;29.20
10010;DHT22;5044;48.652;9.250;2022-08-14T15:34:00;35.40;29.90
10010;DHT22;5044;48.652;9.250;2022-08-14T15:36:36;35.30;28.90
10010;DHT22;5044;48.652;9.250;2022-08-14T15:39:04;35.10;29.20
10010;DHT22;5044;48.652;9.250;2022-08-14T15:41:31;34.90;28.40
10010;DHT22;5044;48.652;9.250;2022-08-14T15:43:59;34.90;28.90
10010;DHT22;5044;48.652;9.250;2022-08-14T15:46:27;35.10;29.50
10010;DHT22;5044;48.652;9.250;2022-08-14T15:48:56;35.30;30.00
10010;DHT22;5044;48.652;9.250;2022-08-14T15:51:23;35.20;30.50
10010;DHT22;5044;48.652;9.250;2022-08-14T15:53:50;35.10;30.90
10010;DHT22;5044;48.652;9.250;2022-08-14T15:56:17;34.80;30.70
10010;DHT22;5044;48.652;9.250;2022-08-14T15:58:44;34.50;30.30